createdAt,value
2022-11-15T00:01:10.446Z,5.99
2022-11-15T00:03:55.333Z,6.21
2022-11-15T00:06:42.591Z,6.18
2022-11-15T00:09:27.675Z,6.14
2022-11-15T00:12:12.840Z,6.15
2022-11-15T00:14:57.966Z,6.24
2022-11-15T00:17:42.878Z,6.25
2022-11-15T00:20:27.682Z,6.20
2022-11-15T00:23:12.497Z,6.21
2022-11-15T00:25:58.633Z,6.19
2022-11-15T00:28:43.429Z,6.17
2022-11-15T00:31:28.418Z,6.18
2022-11-15T00:34:13.303Z,6.13
2022-11-15T00:36:58.502Z,6.15
2022-11-15T00:39:43.028Z,6.13
2022-11-15T00:42:28.280Z,6.27
2022-11-15T00:45:13.135Z,6.26
2022-11-15T00:47:57.865Z,6.26
2022-11-15T00:50:42.783Z,6.23
2022-11-15T00:53:27.710Z,6.24
2022-11-15T00:56:15.535Z,6.34
2022-11-15T00:59:00.545Z,6.31
2022-11-15T01:01:45.278Z,6.29
2022-11-15T01:04:30.418Z,6.19
2022-11-15T01:07:15.023Z,6.27
2022-11-15T01:10:00.352Z,6.21
2022-11-15T01:12:44.945Z,6.18
2022-11-15T01:15:29.919Z,6.15
2022-11-15T01:18:14.359Z,6.11
2022-11-15T01:20:59.072Z,6.03
2022-11-15T01:23:43.931Z,6.01
2022-11-15T01:26:29.162Z,6.01
2022-11-15T01:29:14.433Z,6.06
2022-11-15T01:31:59.271Z,6.04
2022-11-15T01:34:44.064Z,6.06
2022-11-15T01:37:29.226Z,6.04
2022-11-15T01:40:14.942Z,6.00
2022-11-15T01:43:00.024Z,5.99
2022-11-15T01:45:50.039Z,5.98
2022-11-15T01:48:35.570Z,5.96
2022-11-15T01:51:24.948Z,5.98
2022-11-15T01:54:16.714Z,5.93
2022-11-15T01:57:06.986Z,5.93
2022-11-15T01:59:52.052Z,5.80
2022-11-15T02:02:37.956Z,5.85
2022-11-15T02:05:23.295Z,5.81
2022-11-15T02:08:09.118Z,5.92
2022-11-15T02:10:53.846Z,6.01
2022-11-15T02:13:39.363Z,5.90
2022-11-15T02:16:42.400Z,5.87
2022-11-15T02:19:32.993Z,5.93
2022-11-15T02:22:30.157Z,6.01
2022-11-15T02:25:59.539Z,5.87
2022-11-15T02:29:02.166Z,5.78
2022-11-15T02:32:14.862Z,5.80
2022-11-15T02:35:28.928Z,5.73
2022-11-15T02:38:26.905Z,5.70
2022-11-15T02:41:18.577Z,5.76
2022-11-15T02:44:10.462Z,5.70
2022-11-15T02:47:15.344Z,5.68
2022-11-15T02:50:08.459Z,5.69
2022-11-15T02:52:53.492Z,5.58
2022-11-15T02:55:43.096Z,5.56
2022-11-15T02:58:34.633Z,5.52
2022-11-15T03:01:44.165Z,5.50
2022-11-15T03:04:51.200Z,5.50
2022-11-15T03:07:44.604Z,5.46
2022-11-15T03:10:45.551Z,5.61
2022-11-15T03:13:49.351Z,5.59
2022-11-15T03:16:45.101Z,5.61
2022-11-15T03:19:43.105Z,5.57
2022-11-15T03:22:34.237Z,5.52
2022-11-15T03:25:26.308Z,5.63
2022-11-15T03:28:16.859Z,5.44
2022-11-15T03:31:23.529Z,5.51
2022-11-15T03:34:15.855Z,5.48
2022-11-15T03:37:01.743Z,5.55
2022-11-15T03:39:46.750Z,5.46
2022-11-15T03:42:40.155Z,5.55
2022-11-15T03:45:33.899Z,5.62
2022-11-15T03:48:26.552Z,5.64
2022-11-15T03:51:11.832Z,5.42
2022-11-15T03:53:56.884Z,5.40
2022-11-15T03:56:42.017Z,5.52
2022-11-15T03:59:26.853Z,5.45
2022-11-15T04:02:12.350Z,5.38
2022-11-15T04:04:57.171Z,5.39
2022-11-15T04:07:41.874Z,5.40
2022-11-15T04:10:26.951Z,5.32
2022-11-15T04:13:12.337Z,5.27
2022-11-15T04:15:57.020Z,5.31
2022-11-15T04:18:42.358Z,5.34
2022-11-15T04:21:45.549Z,5.28
2022-11-15T04:24:30.944Z,5.33
2022-11-15T04:27:15.956Z,5.26
2022-11-15T04:30:01.346Z,5.25
2022-11-15T04:32:46.381Z,5.29
2022-11-15T04:35:32.355Z,5.28
2022-11-15T04:38:17.191Z,5.24
2022-11-15T04:41:02.594Z,5.21
2022-11-15T04:43:47.273Z,5.15
2022-11-15T04:46:32.761Z,5.16
2022-11-15T04:49:17.240Z,5.26
2022-11-15T04:52:02.668Z,5.25
2022-11-15T04:58:03.894Z,5.12
2022-11-15T05:00:49.147Z,5.23
2022-11-15T05:03:52.376Z,5.23
2022-11-15T05:06:36.915Z,5.25
2022-11-15T05:09:22.209Z,5.16
2022-11-15T05:12:07.244Z,5.25
2022-11-15T05:14:52.233Z,5.23
2022-11-15T05:17:37.014Z,5.20
2022-11-15T05:20:22.233Z,5.30
2022-11-15T05:23:07.346Z,5.32
2022-11-15T05:25:52.403Z,5.50
2022-11-15T05:28:38.241Z,5.39
2022-11-15T05:31:23.678Z,5.44
2022-11-15T05:34:08.537Z,5.52
2022-11-15T05:36:53.859Z,5.53
2022-11-15T05:39:38.698Z,5.40
2022-11-15T05:42:26.843Z,5.40
2022-11-15T05:45:11.947Z,5.34
2022-11-15T05:47:59.439Z,5.41
2022-11-15T05:50:47.289Z,5.46
2022-11-15T05:53:33.072Z,5.37
2022-11-15T05:56:18.018Z,5.28
2022-11-15T05:59:03.339Z,5.25
2022-11-15T06:01:49.041Z,5.22
2022-11-15T06:04:34.140Z,5.10
2022-11-15T06:07:18.742Z,5.26
2022-11-15T06:10:04.187Z,5.28
2022-11-15T06:12:57.383Z,5.22
2022-11-15T06:15:42.672Z,5.21
2022-11-15T06:18:27.618Z,5.17
2022-11-15T06:21:12.559Z,5.25
2022-11-15T06:23:57.500Z,5.35
2022-11-15T06:26:42.579Z,5.30
2022-11-15T06:29:27.588Z,5.25
2022-11-15T06:32:12.950Z,5.26
2022-11-15T06:34:57.725Z,5.33
2022-11-15T06:37:42.817Z,5.40
2022-11-15T06:40:27.456Z,5.45
2022-11-15T06:43:12.660Z,5.41
2022-11-15T06:46:01.492Z,5.52
2022-11-15T06:48:46.581Z,5.44
2022-11-15T06:51:31.103Z,5.51
2022-11-15T06:54:16.493Z,5.62
2022-11-15T06:57:01.566Z,5.51
2022-11-15T06:59:46.529Z,5.50
2022-11-15T07:02:31.732Z,5.54
2022-11-15T07:05:16.838Z,5.59
2022-11-15T07:08:02.356Z,5.57
2022-11-15T07:10:47.712Z,5.68
2022-11-15T07:13:33.733Z,5.67
2022-11-15T07:16:19.108Z,5.70
2022-11-15T07:19:04.239Z,5.67
2022-11-15T07:21:49.172Z,5.57
2022-11-15T07:24:34.095Z,5.54
2022-11-15T07:27:19.376Z,5.77
2022-11-15T07:30:07.691Z,5.80
2022-11-15T07:33:00.550Z,5.87
2022-11-15T07:35:48.543Z,5.88
2022-11-15T07:38:39.575Z,5.88
2022-11-15T07:41:27.430Z,6.02
2022-11-15T07:44:12.284Z,6.16
2022-11-15T07:46:56.678Z,6.18
2022-11-15T07:49:41.468Z,6.21
2022-11-15T07:52:26.159Z,6.26
2022-11-15T07:55:11.519Z,6.33
2022-11-15T07:58:06.789Z,6.39
2022-11-15T08:00:51.706Z,6.51
2022-11-15T08:03:36.925Z,6.46
2022-11-15T08:06:22.136Z,6.59
2022-11-15T08:09:07.165Z,6.37
2022-11-15T08:11:52.034Z,6.56
2022-11-15T08:14:37.098Z,6.64
2022-11-15T08:17:23.307Z,6.66
2022-11-15T08:20:08.430Z,6.72
2022-11-15T08:22:53.577Z,6.86
2022-11-15T08:25:39.086Z,6.92
2022-11-15T08:28:24.373Z,6.94
2022-11-15T08:31:15.136Z,6.97
2022-11-15T08:34:01.544Z,7.05
2022-11-15T08:36:46.428Z,7.16
2022-11-15T08:39:31.904Z,7.17
2022-11-15T08:42:20.087Z,7.22
2022-11-15T08:45:06.015Z,7.31
2022-11-15T08:47:54.163Z,7.29
2022-11-15T08:50:39.894Z,7.43
2022-11-15T08:53:24.770Z,7.33
2022-11-15T08:56:11.696Z,7.61
2022-11-15T08:58:56.231Z,7.61
2022-11-15T09:01:40.981Z,7.68
2022-11-15T09:04:26.980Z,7.71
2022-11-15T09:07:14.058Z,7.64
2022-11-15T09:09:59.055Z,7.71
2022-11-15T09:12:44.126Z,7.86
2022-11-15T09:15:29.330Z,7.83
2022-11-15T09:18:14.612Z,7.81
2022-11-15T09:21:00.381Z,7.83
2022-11-15T09:23:45.927Z,8.01
2022-11-15T09:26:31.222Z,8.04
2022-11-15T09:29:16.175Z,8.06
2022-11-15T09:32:01.406Z,8.12
2022-11-15T09:34:46.522Z,8.15
2022-11-15T09:37:32.693Z,8.13
2022-11-15T09:40:26.575Z,8.30
2022-11-15T09:43:44.316Z,8.16
2022-11-15T09:46:51.124Z,8.25
2022-11-15T09:49:37.714Z,8.17
2022-11-15T09:52:14.417Z,8.29
2022-11-15T09:54:53.488Z,8.33
2022-11-15T09:57:25.186Z,8.47
2022-11-15T09:59:54.641Z,8.51
2022-11-15T10:02:29.791Z,8.58
2022-11-15T10:04:59.315Z,8.64
2022-11-15T10:07:47.258Z,8.78
2022-11-15T10:11:22.877Z,9.03
2022-11-15T10:13:48.250Z,9.17
2022-11-15T10:16:46.721Z,9.14
2022-11-15T10:19:28.696Z,9.03
2022-11-15T10:21:57.818Z,8.77
2022-11-15T10:24:31.160Z,8.87
2022-11-15T10:26:57.327Z,8.79
2022-11-15T10:29:27.079Z,8.85
2022-11-15T10:31:53.857Z,9.00
2022-11-15T10:34:22.932Z,8.81
2022-11-15T10:37:02.584Z,8.89
2022-11-15T10:39:30.273Z,8.94
2022-11-15T10:41:57.327Z,9.00
2022-11-15T10:44:31.611Z,9.10
2022-11-15T10:46:57.949Z,9.09
2022-11-15T10:49:29.972Z,9.13
2022-11-15T10:51:59.266Z,9.29
2022-11-15T10:54:42.845Z,9.18
2022-11-15T10:57:26.290Z,9.33
2022-11-15T10:59:56.781Z,9.47
2022-11-15T11:02:35.960Z,9.52
2022-11-15T11:05:23.884Z,9.58
2022-11-15T11:07:57.968Z,9.60
2022-11-15T11:13:22.117Z,9.58
2022-11-15T11:16:10.983Z,9.55
2022-11-15T11:18:56.990Z,9.62
2022-11-15T11:21:52.545Z,9.62
2022-11-15T11:24:40.914Z,9.49
2022-11-15T11:27:40.966Z,9.56
2022-11-15T11:30:14.236Z,9.39
2022-11-15T11:33:06.091Z,9.39
2022-11-15T11:35:54.431Z,9.40
2022-11-15T11:38:26.847Z,9.36
2022-11-15T11:41:14.771Z,9.23
2022-11-15T11:44:07.758Z,9.13
2022-11-15T11:46:42.927Z,9.14
2022-11-15T11:49:12.884Z,9.01
2022-11-15T11:51:59.240Z,8.94
2022-11-15T11:54:36.308Z,8.98
2022-11-15T11:57:17.715Z,9.11
2022-11-15T11:59:50.911Z,9.13
2022-11-15T12:02:36.885Z,9.24
2022-11-15T12:05:27.937Z,9.45
2022-11-15T12:08:03.255Z,9.51
2022-11-15T12:10:34.927Z,9.54
2022-11-15T12:13:11.398Z,9.45
2022-11-15T12:16:06.169Z,9.45
2022-11-15T12:18:35.727Z,9.49
2022-11-15T12:21:13.697Z,9.40
2022-11-15T12:23:46.665Z,9.36
2022-11-15T12:26:32.766Z,9.38
2022-11-15T12:29:08.576Z,9.40
2022-11-15T12:31:35.578Z,9.42
2022-11-15T12:34:20.032Z,9.49
2022-11-15T12:36:47.647Z,9.46
2022-11-15T12:39:15.549Z,9.49
2022-11-15T12:41:44.578Z,9.43
2022-11-15T12:44:37.682Z,9.50
2022-11-15T12:47:23.462Z,9.52
2022-11-15T12:49:49.939Z,9.47
2022-11-15T12:52:17.176Z,9.32
2022-11-15T12:54:43.282Z,9.35
2022-11-15T12:57:15.566Z,9.30
2022-11-15T12:59:53.419Z,9.28
2022-11-15T13:02:24.025Z,9.30
2022-11-15T13:04:52.939Z,9.21
2022-11-15T13:07:41.263Z,9.27
2022-11-15T13:10:10.364Z,9.28
2022-11-15T13:12:39.574Z,9.38
2022-11-15T13:15:12.016Z,9.44
2022-11-15T13:17:52.936Z,9.37
2022-11-15T13:20:21.231Z,9.34
2022-11-15T13:23:07.911Z,9.31
2022-11-15T13:25:40.129Z,9.38
2022-11-15T13:28:16.207Z,9.29
2022-11-15T13:31:14.096Z,9.27
2022-11-15T13:33:40.631Z,9.31
2022-11-15T13:36:25.856Z,9.31
2022-11-15T13:38:55.456Z,9.25
2022-11-15T13:41:24.605Z,9.27
2022-11-15T13:43:54.086Z,9.35
2022-11-15T13:46:25.663Z,9.36
2022-11-15T13:48:58.385Z,9.30
2022-11-15T13:51:34.538Z,9.29
2022-11-15T13:54:13.399Z,9.25
2022-11-15T13:56:46.160Z,9.13
2022-11-15T13:59:34.711Z,8.99
2022-11-15T14:02:13.777Z,8.82
2022-11-15T14:04:48.511Z,8.77
2022-11-15T14:07:19.448Z,8.66
2022-11-15T14:09:46.798Z,8.69
2022-11-15T14:12:26.589Z,8.61
2022-11-15T14:14:53.735Z,8.67
2022-11-15T14:17:29.167Z,8.76
2022-11-15T14:19:56.724Z,8.60
2022-11-15T14:22:26.542Z,8.53
2022-11-15T14:25:29.733Z,8.42
2022-11-15T14:28:23.654Z,8.31
2022-11-15T14:30:52.560Z,8.41
2022-11-15T14:33:34.560Z,8.38
2022-11-15T14:36:05.905Z,8.34
2022-11-15T14:38:32.931Z,8.31
2022-11-15T14:40:59.753Z,8.40
2022-11-15T14:43:26.004Z,8.38
2022-11-15T14:45:52.503Z,8.42
2022-11-15T14:48:18.830Z,8.31
2022-11-15T14:50:45.686Z,8.21
2022-11-15T14:53:17.536Z,8.14
2022-11-15T14:55:44.269Z,8.10
2022-11-15T14:58:11.052Z,7.92
2022-11-15T15:00:40.418Z,7.82
2022-11-15T15:03:08.026Z,7.93
2022-11-15T15:05:37.719Z,8.09
2022-11-15T15:08:06.072Z,8.27
2022-11-15T15:10:46.449Z,8.17
2022-11-15T15:13:19.719Z,8.05
2022-11-15T15:15:48.060Z,8.14
2022-11-15T15:18:15.767Z,7.98
2022-11-15T15:20:44.137Z,8.08
2022-11-15T15:23:19.144Z,8.18
2022-11-15T15:25:49.276Z,8.17
2022-11-15T15:28:15.874Z,8.12
2022-11-15T15:30:43.709Z,8.14
2022-11-15T15:33:10.097Z,8.17
2022-11-15T15:35:36.979Z,7.93
2022-11-15T15:38:03.884Z,7.94
2022-11-15T15:40:33.625Z,8.03
2022-11-15T15:43:00.244Z,7.98
2022-11-15T15:45:27.936Z,8.03
2022-11-15T15:47:54.582Z,8.19
2022-11-15T15:50:21.909Z,7.98
2022-11-15T15:52:49.095Z,7.83
2022-11-15T15:55:15.754Z,8.02
2022-11-15T15:57:42.022Z,8.08
2022-11-15T16:00:10.365Z,8.05
2022-11-15T16:02:42.229Z,8.18
2022-11-15T16:05:11.280Z,8.20
2022-11-15T16:07:40.212Z,8.23
2022-11-15T16:10:21.927Z,8.30
2022-11-15T16:12:48.962Z,8.30
2022-11-15T16:15:17.616Z,8.05
2022-11-15T16:17:59.325Z,7.99
2022-11-15T16:20:33.728Z,8.02
2022-11-15T16:23:05.799Z,8.15
2022-11-15T16:25:48.437Z,8.04
2022-11-15T16:28:18.039Z,8.04
2022-11-15T16:30:44.785Z,8.06
2022-11-15T16:33:11.240Z,8.14
2022-11-15T16:35:40.061Z,8.02
2022-11-15T16:38:14.583Z,7.79
2022-11-15T16:40:41.231Z,7.89
2022-11-15T16:43:07.946Z,8.06
2022-11-15T16:45:35.199Z,8.09
2022-11-15T16:48:02.123Z,7.99
2022-11-15T16:50:32.240Z,8.02
2022-11-15T16:52:59.322Z,7.93
2022-11-15T16:55:28.929Z,7.88
2022-11-15T16:57:57.419Z,7.95
2022-11-15T17:00:24.996Z,8.00
2022-11-15T17:02:51.939Z,7.84
2022-11-15T17:05:21.724Z,7.91
2022-11-15T17:07:49.782Z,7.98
2022-11-15T17:10:16.743Z,8.10
2022-11-15T17:12:42.954Z,8.08
2022-11-15T17:15:12.320Z,7.87
2022-11-15T17:17:39.423Z,7.85
2022-11-15T17:20:12.806Z,7.81
2022-11-15T17:22:39.097Z,7.94
2022-11-15T17:25:06.477Z,7.89
2022-11-15T17:27:32.960Z,7.75
2022-11-15T17:29:59.462Z,7.82
2022-11-15T17:32:26.118Z,7.80
2022-11-15T17:34:52.992Z,7.91
2022-11-15T17:37:19.378Z,7.93
2022-11-15T17:39:46.180Z,7.95
2022-11-15T17:42:12.474Z,7.98
2022-11-15T17:44:39.036Z,8.06
2022-11-15T17:47:05.610Z,8.06
2022-11-15T17:49:34.347Z,8.00
2022-11-15T17:52:01.062Z,7.87
2022-11-15T17:54:27.803Z,7.93
2022-11-15T17:56:54.042Z,7.93
2022-11-15T17:59:21.780Z,7.82
2022-11-15T18:01:48.262Z,7.77
2022-11-15T18:04:14.829Z,7.96
2022-11-15T18:06:41.959Z,7.96
2022-11-15T18:09:08.530Z,8.09
2022-11-15T18:11:40.738Z,8.07
2022-11-15T18:14:11.685Z,8.10
2022-11-15T18:16:39.055Z,8.15
2022-11-15T18:19:08.276Z,8.14
2022-11-15T18:21:36.932Z,8.12
2022-11-15T18:24:03.773Z,8.15
2022-11-15T18:26:30.678Z,8.24
2022-11-15T18:29:02.579Z,8.20
2022-11-15T18:31:30.347Z,8.11
2022-11-15T18:33:59.369Z,8.19
2022-11-15T18:36:28.030Z,8.23
2022-11-15T18:39:01.862Z,8.30
2022-11-15T18:41:28.846Z,8.32
2022-11-15T18:43:56.498Z,8.25
2022-11-15T18:46:25.366Z,8.26
2022-11-15T18:48:53.129Z,8.18
2022-11-15T18:51:21.908Z,8.27
2022-11-15T18:53:48.907Z,8.30
2022-11-15T18:56:17.741Z,8.27
2022-11-15T18:58:46.660Z,8.32
2022-11-15T19:01:18.030Z,8.37
2022-11-15T19:03:50.509Z,8.38
2022-11-15T19:06:23.215Z,8.41
2022-11-15T19:08:55.737Z,8.44
2022-11-15T19:11:28.325Z,8.23
2022-11-15T19:13:57.661Z,8.36
2022-11-15T19:16:24.481Z,8.37
2022-11-15T19:18:56.159Z,8.28
2022-11-15T19:21:23.581Z,8.38
2022-11-15T19:23:52.225Z,8.31
2022-11-15T19:26:18.773Z,8.30
2022-11-15T19:28:50.838Z,8.28
2022-11-15T19:31:18.066Z,8.30
2022-11-15T19:33:45.690Z,8.33
2022-11-15T19:36:14.623Z,8.36
2022-11-15T19:38:42.522Z,8.62
2022-11-15T19:41:14.993Z,8.51
2022-11-15T19:43:42.070Z,8.47
2022-11-15T19:46:11.846Z,8.46
2022-11-15T19:48:39.060Z,8.41
2022-11-15T19:51:14.299Z,8.47
2022-11-15T19:53:42.517Z,8.31
2022-11-15T19:56:14.900Z,8.51
2022-11-15T19:58:42.362Z,8.39
2022-11-15T20:01:14.774Z,8.36
2022-11-15T20:03:41.722Z,8.38
2022-11-15T20:06:11.091Z,8.44
2022-11-15T20:08:37.877Z,8.43
2022-11-15T20:11:05.283Z,8.30
2022-11-15T20:13:32.441Z,8.43
2022-11-15T20:15:59.003Z,8.38
2022-11-15T20:18:27.920Z,8.45
2022-11-15T20:20:55.891Z,8.49
2022-11-15T20:23:23.075Z,8.34
2022-11-15T20:25:50.031Z,8.50
2022-11-15T20:28:22.659Z,8.47
2022-11-15T20:30:52.606Z,8.42
2022-11-15T20:33:19.945Z,8.29
2022-11-15T20:35:46.206Z,8.13
2022-11-15T20:38:12.753Z,8.20
2022-11-15T20:40:40.021Z,8.26
2022-11-15T20:43:11.529Z,8.24
2022-11-15T20:45:38.677Z,8.15
2022-11-15T20:48:05.921Z,7.99
2022-11-15T20:50:47.186Z,8.06
2022-11-15T20:53:17.019Z,7.97
2022-11-15T20:55:48.901Z,7.98
2022-11-15T20:58:16.650Z,7.88
2022-11-15T21:00:44.325Z,7.88
2022-11-15T21:03:12.357Z,7.95
2022-11-15T21:05:40.470Z,7.98
2022-11-15T21:08:08.063Z,7.92
2022-11-15T21:10:53.159Z,8.05
2022-11-15T21:13:20.462Z,8.03
2022-11-15T21:15:46.853Z,8.19
2022-11-15T21:18:14.263Z,8.02
2022-11-15T21:20:40.759Z,8.04
2022-11-15T21:23:07.608Z,8.19
2022-11-15T21:25:34.183Z,8.01
2022-11-15T21:28:01.309Z,8.16
2022-11-15T21:30:27.529Z,8.20
2022-11-15T21:32:54.583Z,8.23
2022-11-15T21:35:23.084Z,8.32
2022-11-15T21:37:56.135Z,8.30
2022-11-15T21:40:24.813Z,8.27
2022-11-15T21:42:51.369Z,8.17
2022-11-15T21:45:17.744Z,7.95
2022-11-15T21:47:46.351Z,7.97
2022-11-15T21:50:13.457Z,7.83
2022-11-15T21:52:40.353Z,8.00
2022-11-15T21:55:07.751Z,8.04
2022-11-15T21:57:34.820Z,8.10
2022-11-15T22:00:19.830Z,7.92
2022-11-15T22:02:46.430Z,8.16
2022-11-15T22:07:57.499Z,8.32
2022-11-15T22:10:24.792Z,8.47
2022-11-15T22:12:51.401Z,8.28
2022-11-15T22:15:17.690Z,8.39
2022-11-15T22:17:57.279Z,8.49
2022-11-15T22:20:43.686Z,8.26
2022-11-15T22:23:10.192Z,8.18
2022-11-15T22:25:36.447Z,8.35
2022-11-15T22:28:03.056Z,8.29
2022-11-15T22:30:29.313Z,8.44
2022-11-15T22:32:56.169Z,8.55
2022-11-15T22:35:22.490Z,8.41
2022-11-15T22:37:49.177Z,8.33
2022-11-15T22:40:15.913Z,8.38
2022-11-15T22:42:42.413Z,8.42
2022-11-15T22:45:08.954Z,8.47
2022-11-15T22:47:35.778Z,8.47
2022-11-15T22:50:02.062Z,8.20
2022-11-15T22:52:28.506Z,8.33
2022-11-15T22:54:54.667Z,8.51
2022-11-15T22:57:21.167Z,8.47
2022-11-15T22:59:47.559Z,8.46
2022-11-15T23:02:14.077Z,8.50
2022-11-15T23:04:40.549Z,8.49
2022-11-15T23:07:07.175Z,8.62
2022-11-15T23:09:33.410Z,8.57
2022-11-15T23:12:19.088Z,8.53
2022-11-15T23:14:45.416Z,8.31
2022-11-15T23:17:11.881Z,8.32
2022-11-15T23:19:38.123Z,8.18
2022-11-15T23:25:23.169Z,8.25
2022-11-15T23:27:49.584Z,8.30
2022-11-15T23:30:45.832Z,8.24
2022-11-15T23:33:34.521Z,8.25
2022-11-15T23:36:00.836Z,8.13
2022-11-15T23:38:27.364Z,8.22
2022-11-15T23:40:54.642Z,8.31
2022-11-15T23:43:21.691Z,8.27
2022-11-15T23:45:48.079Z,8.34
2022-11-15T23:48:14.555Z,8.40
2022-11-15T23:50:40.719Z,8.22
2022-11-15T23:53:07.199Z,8.26
2022-11-15T23:55:33.352Z,8.16
2022-11-15T23:57:59.818Z,8.32
